Time;durP1;ratioP1;P1;durP2;ratioP2;P2;SDS_P1;SDS_P2;PMS_P1;PMS_P2;Temp;Humidity;BMP_temperature;BMP_pressure;BME280_temperature;BME280_humidity;BME280_pressure;Samples;Min_cycle;Max_cycle;Signal;HPM_P1;HPM_P2
2022/01/09 00:02:12;;;;;;;35.33;22.77;;;;;;;;;;143740;583;46021;-64
2022/01/09 00:04:39;;;;;;;29.83;21.30;;;;;;;;;;143743;637;46020;-64
2022/01/09 00:07:06;;;;;;;33.85;23.15;;;;;;;;;;143741;563;47022;-64
2022/01/09 00:09:33;;;;;;;29.65;21.00;;;;;;;;;;143742;619;46020;-64
2022/01/09 00:12:00;;;;;;;35.25;21.20;;;;;;;;;;143740;571;46020;-64
2022/01/09 00:14:27;;;;;;;46.00;28.95;;;;;;;;;;143744;636;46020;-64
2022/01/09 00:16:54;;;;;;;32.88;22.55;;;;;;;;;;143744;583;46022;-64
2022/01/09 00:19:20;;;;;;;44.33;29.30;;;;;;;;;;143742;588;46020;-64
2022/01/09 00:21:49;;;;;;;38.38;26.33;;;;;;;;;;143742;565;46020;-64
2022/01/09 00:24:16;;;;;;;40.58;26.55;;;;;;;;;;143744;641;46020;-64
2022/01/09 00:26:43;;;;;;;36.67;25.60;;;;;;;;;;143744;599;46023;-64
2022/01/09 00:29:10;;;;;;;32.25;21.62;;;;;;;;;;143742;585;46012;-64
2022/01/09 00:31:38;;;;;;;33.45;24.10;;;;;;;;;;143742;574;46020;-64
2022/01/09 00:34:05;;;;;;;35.45;25.20;;;;;;;;;;143745;587;46021;-64
2022/01/09 00:36:32;;;;;;;38.15;24.20;;;;;;;;;;143744;586;46022;-64
2022/01/09 00:38:59;;;;;;;35.55;21.48;;;;;;;;;;143742;564;46020;-64
2022/01/09 00:41:26;;;;;;;27.40;19.02;;;;;;;;;;143741;569;46021;-65
2022/01/09 00:43:53;;;;;;;26.95;18.70;;;;;;;;;;143745;636;46020;-64
2022/01/09 00:46:20;;;;;;;28.62;18.90;;;;;;;;;;143743;642;46022;-64
2022/01/09 00:48:47;;;;;;;30.30;18.83;;;;;;;;;;143741;625;46021;-64
2022/01/09 00:51:14;;;;;;;24.00;16.77;;;;;;;;;;143740;585;46020;-64
2022/01/09 00:53:41;;;;;;;27.98;18.52;;;;;;;;;;143747;600;46020;-63
2022/01/09 00:56:08;;;;;;;28.60;18.58;;;;;;;;;;143743;605;46023;-65
2022/01/09 00:58:35;;;;;;;28.83;19.40;;;;;;;;;;143742;564;46012;-64
2022/01/09 01:01:02;;;;;;;26.42;19.05;;;;;;;;;;143742;575;46020;-64
2022/01/09 01:03:30;;;;;;;29.27;21.10;;;;;;;;;;143744;580;46021;-64
2022/01/09 01:05:57;;;;;;;27.73;19.80;;;;;;;;;;143741;625;46022;-64
2022/01/09 01:08:24;;;;;;;28.25;19.65;;;;;;;;;;143742;631;46013;-64
2022/01/09 01:10:51;;;;;;;33.78;22.15;;;;;;;;;;143740;669;46021;-64
2022/01/09 01:13:18;;;;;;;27.67;20.12;;;;;;;;;;143745;605;46020;-64
2022/01/09 01:15:48;;;;;;;27.62;20.15;;;;;;;;;;143741;604;46022;-64
2022/01/09 01:18:15;;;;;;;29.65;21.00;;;;;;;;;;143742;569;46033;-64
2022/01/09 01:20:42;;;;;;;29.20;20.27;;;;;;;;;;143742;565;46020;-64
2022/01/09 01:23:09;;;;;;;35.10;22.52;;;;;;;;;;143741;594;46020;-63
2022/01/09 01:25:37;;;;;;;31.52;22.20;;;;;;;;;;143743;624;46023;-64
2022/01/09 01:28:04;;;;;;;24.92;17.73;;;;;;;;;;143740;586;46020;-63
2022/01/09 01:30:31;;;;;;;24.12;17.20;;;;;;;;;;143738;597;46020;-65
2022/01/09 01:32:58;;;;;;;32.13;25.10;;;;;;;;;;143741;629;46021;-64
2022/01/09 01:35:25;;;;;;;28.90;21.75;;;;;;;;;;143741;589;46022;-65
2022/01/09 01:37:58;;;;;;;29.60;23.12;;;;;;;;;;143740;612;46020;-64
2022/01/09 01:40:25;;;;;;;32.53;21.77;;;;;;;;;;143740;573;46021;-64
2022/01/09 01:42:52;;;;;;;36.95;25.62;;;;;;;;;;143743;579;46020;-64
2022/01/09 01:45:19;;;;;;;38.15;26.42;;;;;;;;;;143741;570;46022;-62
2022/01/09 01:47:46;;;;;;;38.50;25.35;;;;;;;;;;143740;569;46021;-63
2022/01/09 01:50:14;;;;;;;40.53;25.27;;;;;;;;;;143741;603;46020;-63
2022/01/09 01:52:45;;;;;;;44.38;29.23;;;;;;;;;;143741;654;46020;-65
2022/01/09 01:55:13;;;;;;;47.08;27.58;;;;;;;;;;143740;661;46053;-63
2022/01/09 01:57:42;;;;;;;39.33;26.75;;;;;;;;;;143740;570;46020;-64
2022/01/09 02:00:14;;;;;;;44.08;29.75;;;;;;;;;;143741;589;46020;-64
2022/01/09 02:02:41;;;;;;;33.38;23.23;;;;;;;;;;143745;575;46021;-64
2022/01/09 02:05:09;;;;;;;33.55;22.77;;;;;;;;;;143739;572;47020;-63
2022/01/09 02:07:38;;;;;;;37.55;25.05;;;;;;;;;;143740;609;46013;-63
2022/01/09 02:10:11;;;;;;;48.47;28.75;;;;;;;;;;143739;584;46021;-63
2022/01/09 02:12:40;;;;;;;44.45;29.05;;;;;;;;;;143742;569;46020;-63
2022/01/09 02:15:46;;;;;;;35.10;21.98;;;;;;;;;;143742;581;46022;-62
2022/01/09 02:18:19;;;;;;;32.17;22.13;;;;;;;;;;143740;590;46020;-63
2022/01/09 02:20:47;;;;;;;25.75;19.23;;;;;;;;;;143737;629;46020;-63
2022/01/09 02:23:16;;;;;;;33.75;24.17;;;;;;;;;;143741;589;46020;-64
2022/01/09 02:25:44;;;;;;;29.50;21.92;;;;;;;;;;143741;576;47020;-63
2022/01/09 02:28:12;;;;;;;33.58;23.98;;;;;;;;;;143740;569;46020;-63
2022/01/09 02:30:40;;;;;;;39.55;25.58;;;;;;;;;;143740;588;46020;-63
2022/01/09 02:33:09;;;;;;;46.10;28.80;;;;;;;;;;143741;665;46021;-64
2022/01/09 02:35:39;;;;;;;31.92;22.33;;;;;;;;;;143742;569;46022;-64
2022/01/09 02:38:06;;;;;;;38.13;24.67;;;;;;;;;;143741;639;46013;-63
2022/01/09 02:40:34;;;;;;;41.50;25.73;;;;;;;;;;143741;631;46021;-64
2022/01/09 02:43:03;;;;;;;50.60;28.87;;;;;;;;;;143743;609;46020;-63
2022/01/09 02:45:30;;;;;;;59.47;31.73;;;;;;;;;;143740;572;47021;-63
2022/01/09 02:47:59;;;;;;;74.15;35.55;;;;;;;;;;143737;569;46012;-63
2022/01/09 02:53:12;;;;;;;79.10;35.08;;;;;;;;;;143740;576;46021;-63
2022/01/09 02:55:39;;;;;;;50.85;28.20;;;;;;;;;;143741;657;46020;-63
2022/01/09 02:58:06;;;;;;;43.40;26.90;;;;;;;;;;143740;621;46020;-63
2022/01/09 03:00:36;;;;;;;72.55;38.80;;;;;;;;;;143738;566;46021;-64
2022/01/09 03:03:04;;;;;;;87.32;37.65;;;;;;;;;;143741;564;46020;-63
2022/01/09 03:05:32;;;;;;;67.03;33.33;;;;;;;;;;143741;576;46022;-64
2022/01/09 03:07:59;;;;;;;72.12;37.15;;;;;;;;;;143740;597;46012;-64
2022/01/09 03:10:27;;;;;;;64.47;33.50;;;;;;;;;;143738;635;46021;-63
2022/01/09 03:12:58;;;;;;;94.68;42.08;;;;;;;;;;143738;606;46020;-64
2022/01/09 03:15:26;;;;;;;74.32;38.50;;;;;;;;;;143743;624;46022;-63
2022/01/09 03:17:53;;;;;;;82.12;42.35;;;;;;;;;;143741;630;46020;-63
2022/01/09 03:20:23;;;;;;;96.37;40.35;;;;;;;;;;143738;636;46020;-64
2022/01/09 03:22:54;;;;;;;96.15;44.22;;;;;;;;;;143748;617;46014;-64
2022/01/09 03:25:26;;;;;;;99.55;43.78;;;;;;;;;;143740;565;46023;-63
2022/01/09 03:27:56;;;;;;;95.70;43.95;;;;;;;;;;143740;565;46020;-63
2022/01/09 03:30:24;;;;;;;93.72;44.63;;;;;;;;;;143739;576;46020;-62
2022/01/09 03:32:53;;;;;;;92.93;43.03;;;;;;;;;;143742;572;46021;-62
2022/01/09 03:35:22;;;;;;;81.93;39.65;;;;;;;;;;143740;585;46022;-63
2022/01/09 03:37:50;;;;;;;79.60;38.25;;;;;;;;;;143740;566;46020;-63
2022/01/09 03:40:22;;;;;;;64.32;32.83;;;;;;;;;;143738;586;46021;-62
2022/01/09 03:42:51;;;;;;;100.43;45.08;;;;;;;;;;143743;564;46020;-63
2022/01/09 03:45:19;;;;;;;84.53;41.92;;;;;;;;;;143740;570;46053;-63
2022/01/09 03:47:46;;;;;;;89.03;43.22;;;;;;;;;;143740;620;46021;-63
2022/01/09 03:50:14;;;;;;;89.72;44.45;;;;;;;;;;143740;657;46020;-63
2022/01/09 03:52:41;;;;;;;87.05;42.42;;;;;;;;;;143743;641;46020;-63
2022/01/09 03:55:10;;;;;;;104.93;50.97;;;;;;;;;;143740;613;47023;-62
2022/01/09 03:57:37;;;;;;;105.78;49.20;;;;;;;;;;143740;641;46020;-63
2022/01/09 04:00:06;;;;;;;84.55;44.30;;;;;;;;;;143740;625;46020;-63
2022/01/09 04:02:33;;;;;;;69.55;36.97;;;;;;;;;;143743;612;46021;-64
2022/01/09 04:05:00;;;;;;;55.63;29.65;;;;;;;;;;143740;667;46022;-62
2022/01/09 04:07:28;;;;;;;45.33;25.27;;;;;;;;;;143740;581;46020;-63
2022/01/09 04:09:55;;;;;;;48.95;28.48;;;;;;;;;;143740;618;46021;-63
2022/01/09 04:12:33;;;;;;;46.97;26.02;;;;;;;;;;143740;597;46020;-64
2022/01/09 04:15:05;;;;;;;48.78;28.50;;;;;;;;;;143741;646;46022;-64
2022/01/09 04:17:54;;;;;;;51.17;33.55;;;;;;;;;;143740;585;46020;-63
2022/01/09 04:20:23;;;;;;;62.72;35.40;;;;;;;;;;143739;571;46020;-63
2022/01/09 04:22:51;;;;;;;56.03;31.67;;;;;;;;;;143743;578;46020;-64
2022/01/09 04:25:18;;;;;;;55.55;31.73;;;;;;;;;;143739;565;47023;-64
2022/01/09 04:27:47;;;;;;;56.50;34.38;;;;;;;;;;143740;589;46020;-63
2022/01/09 04:30:14;;;;;;;63.67;38.47;;;;;;;;;;143739;580;46021;-63
2022/01/09 04:32:41;;;;;;;85.20;44.33;;;;;;;;;;143744;632;46021;-63
2022/01/09 04:35:08;;;;;;;73.93;41.63;;;;;;;;;;143740;614;46022;-63
2022/01/09 04:37:38;;;;;;;83.05;45.05;;;;;;;;;;143739;645;46021;-64
2022/01/09 04:40:08;;;;;;;70.75;40.45;;;;;;;;;;143740;639;46021;-64
2022/01/09 04:42:42;;;;;;;78.97;44.92;;;;;;;;;;143744;580;46020;-64
2022/01/09 04:45:11;;;;;;;71.75;42.38;;;;;;;;;;143744;640;46022;-64
2022/01/09 04:47:41;;;;;;;63.08;37.20;;;;;;;;;;143740;621;46012;-64
2022/01/09 04:50:12;;;;;;;55.38;32.58;;;;;;;;;;143735;639;46020;-64
2022/01/09 04:52:40;;;;;;;58.03;32.00;;;;;;;;;;143742;572;46020;-63
2022/01/09 04:55:08;;;;;;;60.40;40.60;;;;;;;;;;143740;585;46045;-63
2022/01/09 04:57:35;;;;;;;49.25;30.20;;;;;;;;;;143740;629;46020;-63
2022/01/09 05:00:04;;;;;;;55.88;36.75;;;;;;;;;;143739;659;46021;-62
2022/01/09 05:02:31;;;;;;;56.83;36.72;;;;;;;;;;143742;569;46020;-63
2022/01/09 05:04:57;;;;;;;59.42;36.22;;;;;;;;;;143739;577;47022;-63
2022/01/09 05:07:24;;;;;;;65.60;38.47;;;;;;;;;;143737;622;46021;-63
2022/01/09 05:09:51;;;;;;;60.35;38.95;;;;;;;;;;143739;575;46020;-63
2022/01/09 05:12:19;;;;;;;55.88;34.03;;;;;;;;;;143739;573;46020;-63
2022/01/09 05:14:45;;;;;;;55.78;33.45;;;;;;;;;;143739;571;47022;-63
2022/01/09 05:17:12;;;;;;;63.55;38.58;;;;;;;;;;143737;655;46020;-64
2022/01/09 05:19:43;;;;;;;61.97;38.55;;;;;;;;;;143741;613;46020;-63
2022/01/09 05:22:10;;;;;;;56.45;37.28;;;;;;;;;;143741;594;46020;-63
2022/01/09 05:24:37;;;;;;;65.12;42.08;;;;;;;;;;143739;592;47023;-63
2022/01/09 05:27:04;;;;;;;62.95;40.28;;;;;;;;;;143740;622;46012;-62
2022/01/09 05:29:31;;;;;;;65.30;39.70;;;;;;;;;;143734;606;46020;-62
2022/01/09 05:31:58;;;;;;;62.50;41.03;;;;;;;;;;143741;629;46021;-63
2022/01/09 05:34:28;;;;;;;66.20;40.95;;;;;;;;;;143739;627;47022;-63
2022/01/09 05:36:55;;;;;;;62.42;39.20;;;;;;;;;;143740;577;46021;-62
2022/01/09 05:39:23;;;;;;;69.40;41.10;;;;;;;;;;143740;583;46021;-63
2022/01/09 05:41:50;;;;;;;75.72;42.83;;;;;;;;;;143743;588;46020;-63
2022/01/09 05:44:18;;;;;;;76.35;42.67;;;;;;;;;;143742;609;46022;-63
2022/01/09 05:46:46;;;;;;;69.55;42.15;;;;;;;;;;143740;630;46021;-62
2022/01/09 05:49:15;;;;;;;65.70;40.17;;;;;;;;;;143739;642;46022;-63
2022/01/09 05:51:42;;;;;;;66.70;40.65;;;;;;;;;;143741;639;46018;-63
2022/01/09 05:54:09;;;;;;;66.78;39.30;;;;;;;;;;143741;615;46023;-64
2022/01/09 05:56:36;;;;;;;71.20;39.88;;;;;;;;;;143740;566;46020;-64
2022/01/09 05:59:03;;;;;;;66.80;38.38;;;;;;;;;;143739;573;46021;-64
2022/01/09 06:01:30;;;;;;;77.22;40.22;;;;;;;;;;143739;564;46021;-65
2022/01/09 06:03:57;;;;;;;66.72;39.97;;;;;;;;;;143740;591;46048;-63
2022/01/09 06:06:24;;;;;;;70.62;40.33;;;;;;;;;;143739;610;46020;-63
2022/01/09 06:08:54;;;;;;;68.78;39.60;;;;;;;;;;143740;653;46021;-63
2022/01/09 06:11:21;;;;;;;72.82;40.67;;;;;;;;;;143744;579;46020;-63
2022/01/09 06:13:48;;;;;;;64.35;38.40;;;;;;;;;;143740;601;46048;-64
2022/01/09 06:16:15;;;;;;;71.82;40.05;;;;;;;;;;143740;585;46021;-63
2022/01/09 06:18:45;;;;;;;57.00;35.25;;;;;;;;;;143742;662;46020;-63
2022/01/09 06:21:12;;;;;;;56.92;35.47;;;;;;;;;;143741;665;46020;-63
2022/01/09 06:23:39;;;;;;;61.97;36.47;;;;;;;;;;143740;615;46023;-63
2022/01/09 06:26:06;;;;;;;54.22;32.70;;;;;;;;;;143740;569;46012;-63
2022/01/09 06:28:36;;;;;;;63.92;34.85;;;;;;;;;;143738;589;46020;-63
2022/01/09 06:31:06;;;;;;;57.85;35.40;;;;;;;;;;143739;564;46021;-63
2022/01/09 06:33:33;;;;;;;71.30;40.83;;;;;;;;;;143743;587;46022;-63
2022/01/09 06:36:00;;;;;;;68.15;39.78;;;;;;;;;;143740;564;46020;-65
2022/01/09 06:38:28;;;;;;;63.85;41.03;;;;;;;;;;143740;588;46021;-64
2022/01/09 06:40:55;;;;;;;71.37;44.95;;;;;;;;;;143741;597;46020;-64
2022/01/09 06:43:22;;;;;;;76.28;46.25;;;;;;;;;;143741;575;46022;-64
2022/01/09 06:45:49;;;;;;;71.35;45.12;;;;;;;;;;143740;649;46021;-65
2022/01/09 06:48:19;;;;;;;68.95;42.22;;;;;;;;;;143740;640;46020;-64
2022/01/09 06:50:46;;;;;;;83.00;50.30;;;;;;;;;;143743;606;46020;-64
2022/01/09 06:53:13;;;;;;;64.87;39.53;;;;;;;;;;143740;582;46023;-64
2022/01/09 06:55:41;;;;;;;62.50;37.03;;;;;;;;;;143741;565;46012;-64
2022/01/09 06:58:08;;;;;;;65.90;39.08;;;;;;;;;;143737;608;46039;-64
2022/01/09 07:00:38;;;;;;;71.28;40.38;;;;;;;;;;143739;616;46021;-64
2022/01/09 07:03:08;;;;;;;79.20;45.45;;;;;;;;;;143741;580;46022;-64
2022/01/09 07:05:35;;;;;;;79.03;43.05;;;;;;;;;;143739;674;46021;-63
2022/01/09 07:08:02;;;;;;;51.30;32.70;;;;;;;;;;143738;571;46021;-64
2022/01/09 07:10:30;;;;;;;44.08;25.30;;;;;;;;;;143745;603;46020;-64
2022/01/09 07:12:57;;;;;;;37.22;22.50;;;;;;;;;;143742;624;46022;-63
2022/01/09 07:15:24;;;;;;;39.53;23.85;;;;;;;;;;143740;636;46021;-63
2022/01/09 07:17:52;;;;;;;73.72;41.17;;;;;;;;;;143739;582;46020;-64
2022/01/09 07:20:19;;;;;;;60.45;38.50;;;;;;;;;;143743;572;46020;-64
2022/01/09 07:22:47;;;;;;;55.72;34.20;;;;;;;;;;143739;570;47021;-63
2022/01/09 07:25:14;;;;;;;44.17;30.90;;;;;;;;;;143740;614;46915;-64
2022/01/09 07:27:41;;;;;;;46.95;30.75;;;;;;;;;;143738;574;46020;-63
2022/01/09 07:30:09;;;;;;;47.60;33.20;;;;;;;;;;143742;635;46021;-63
2022/01/09 07:32:37;;;;;;;53.00;35.03;;;;;;;;;;143742;564;46022;-64
2022/01/09 07:35:05;;;;;;;46.90;31.17;;;;;;;;;;143740;605;46020;-64
2022/01/09 07:37:32;;;;;;;40.63;27.77;;;;;;;;;;143743;569;46021;-65
2022/01/09 07:39:59;;;;;;;43.25;28.20;;;;;;;;;;143742;597;46020;-65
2022/01/09 07:42:27;;;;;;;35.40;23.85;;;;;;;;;;143741;592;46022;-64
2022/01/09 07:44:54;;;;;;;29.45;20.83;;;;;;;;;;143741;760;46021;-63
2022/01/09 07:47:21;;;;;;;28.95;20.45;;;;;;;;;;143739;685;46020;-63
2022/01/09 07:49:48;;;;;;;37.10;25.90;;;;;;;;;;143742;569;46020;-64
2022/01/09 07:52:15;;;;;;;45.20;29.87;;;;;;;;;;143740;589;46023;-63
2022/01/09 07:54:42;;;;;;;47.15;30.40;;;;;;;;;;143738;673;46020;-65
2022/01/09 07:57:09;;;;;;;46.17;29.92;;;;;;;;;;143741;593;46020;-63
2022/01/09 07:59:36;;;;;;;39.80;24.37;;;;;;;;;;143742;570;46021;-65
2022/01/09 08:02:04;;;;;;;34.78;24.30;;;;;;;;;;143743;577;46022;-65
2022/01/09 08:04:31;;;;;;;36.63;25.23;;;;;;;;;;143742;604;46012;-63
2022/01/09 08:06:58;;;;;;;29.80;20.62;;;;;;;;;;143738;668;46045;-65
2022/01/09 08:09:24;;;;;;;30.23;21.90;;;;;;;;;;143743;666;46020;-65
2022/01/09 08:11:51;;;;;;;45.92;28.38;;;;;;;;;;143742;587;46022;-64
2022/01/09 08:14:19;;;;;;;52.47;33.10;;;;;;;;;;143740;579;46021;-64
2022/01/09 08:16:46;;;;;;;44.30;30.25;;;;;;;;;;143741;599;46020;-64
2022/01/09 08:19:13;;;;;;;44.25;29.35;;;;;;;;;;143744;602;46020;-65
2022/01/09 08:21:40;;;;;;;56.50;37.28;;;;;;;;;;143738;566;47022;-63
2022/01/09 08:24:07;;;;;;;55.17;37.45;;;;;;;;;;143739;624;46020;-64
2022/01/09 08:26:34;;;;;;;59.72;42.90;;;;;;;;;;143738;622;47020;-64
2022/01/09 08:29:02;;;;;;;53.65;36.40;;;;;;;;;;143743;586;46020;-63
2022/01/09 08:31:29;;;;;;;55.72;37.45;;;;;;;;;;143743;606;46022;-64
2022/01/09 08:33:56;;;;;;;67.25;46.13;;;;;;;;;;143741;596;46012;-64
2022/01/09 08:36:23;;;;;;;70.12;47.75;;;;;;;;;;143740;581;46021;-63
2022/01/09 08:38:50;;;;;;;85.50;53.55;;;;;;;;;;143743;642;46020;-64
2022/01/09 08:41:16;;;;;;;87.85;56.53;;;;;;;;;;143740;647;46022;-64
2022/01/09 08:43:44;;;;;;;89.00;57.62;;;;;;;;;;143741;621;46021;-62
2022/01/09 08:46:11;;;;;;;102.55;64.12;;;;;;;;;;143739;605;46020;-63
2022/01/09 08:48:38;;;;;;;121.97;70.97;;;;;;;;;;143742;602;46020;-63
2022/01/09 08:51:06;;;;;;;115.32;69.00;;;;;;;;;;143739;566;47022;-63
2022/01/09 08:53:36;;;;;;;127.53;80.28;;;;;;;;;;143740;570;46020;-63
2022/01/09 08:56:04;;;;;;;123.40;76.50;;;;;;;;;;143737;580;46020;-62
2022/01/09 08:58:32;;;;;;;93.57;57.00;;;;;;;;;;143744;593;46020;-64
2022/01/09 09:01:00;;;;;;;80.32;51.83;;;;;;;;;;143739;584;47020;-63
2022/01/09 09:03:27;;;;;;;67.37;43.95;;;;;;;;;;143739;611;46915;-62
2022/01/09 09:05:54;;;;;;;63.92;42.90;;;;;;;;;;143740;570;46021;-64
2022/01/09 09:08:21;;;;;;;51.63;35.58;;;;;;;;;;143743;610;46020;-62
2022/01/09 09:10:48;;;;;;;53.83;35.47;;;;;;;;;;143743;571;46022;-64
2022/01/09 09:13:15;;;;;;;44.08;31.80;;;;;;;;;;143740;569;46020;-64
2022/01/09 09:15:42;;;;;;;44.83;31.30;;;;;;;;;;143741;637;46020;-63
2022/01/09 09:18:09;;;;;;;45.53;30.95;;;;;;;;;;143742;595;46020;-64
2022/01/09 09:20:36;;;;;;;40.55;29.80;;;;;;;;;;143741;600;46023;-62
2022/01/09 09:23:04;;;;;;;41.00;28.98;;;;;;;;;;143740;610;46020;-64
2022/01/09 09:25:30;;;;;;;36.47;26.45;;;;;;;;;;143741;607;46911;-64
2022/01/09 09:27:58;;;;;;;44.95;29.27;;;;;;;;;;143742;632;46020;-64
2022/01/09 09:30:25;;;;;;;52.62;34.83;;;;;;;;;;143743;573;46023;-62
2022/01/09 09:32:55;;;;;;;58.42;37.75;;;;;;;;;;143742;602;46020;-64
2022/01/09 09:35:22;;;;;;;59.67;39.97;;;;;;;;;;143740;570;46021;-64
2022/01/09 09:37:49;;;;;;;55.97;39.38;;;;;;;;;;143745;621;46020;-65
2022/01/09 09:40:19;;;;;;;51.08;33.70;;;;;;;;;;143742;617;46050;-63
2022/01/09 09:42:46;;;;;;;52.13;36.78;;;;;;;;;;143741;569;46021;-63
2022/01/09 09:45:14;;;;;;;54.42;36.97;;;;;;;;;;143742;604;46020;-62
2022/01/09 09:47:41;;;;;;;54.03;38.17;;;;;;;;;;143745;635;46020;-63
2022/01/09 09:50:11;;;;;;;44.70;32.50;;;;;;;;;;143742;587;46022;-63
2022/01/09 09:52:40;;;;;;;50.47;36.55;;;;;;;;;;143741;582;46915;-64
2022/01/09 09:55:07;;;;;;;69.25;47.65;;;;;;;;;;143742;737;46020;-63
2022/01/09 09:57:35;;;;;;;102.65;71.00;;;;;;;;;;143745;593;46020;-64
2022/01/09 10:00:08;;;;;;;79.70;54.75;;;;;;;;;;143742;585;47020;-64
2022/01/09 10:02:56;;;;;;;76.50;49.22;;;;;;;;;;143742;573;46012;-63
2022/01/09 10:05:38;;;;;;;57.78;41.53;;;;;;;;;;143742;564;46020;-64
2022/01/09 10:08:15;;;;;;;45.97;33.20;;;;;;;;;;143744;581;46020;-64
2022/01/09 10:10:43;;;;;;;46.30;31.75;;;;;;;;;;143743;569;47020;-63
2022/01/09 10:13:12;;;;;;;45.30;32.78;;;;;;;;;;143742;596;46021;-64
2022/01/09 10:15:57;;;;;;;44.72;33.97;;;;;;;;;;143741;599;46020;-64
2022/01/09 10:18:40;;;;;;;;;;;;;;;;;;143746;980;46020;-64
2022/01/09 10:21:16;;;;;;;71.03;48.63;;;;;;;;;;143748;636;46039;-64
2022/01/09 10:24:07;;;;;;;60.58;37.75;;;;;;;;;;143743;577;46012;-64
2022/01/09 10:26:40;;;;;;;51.28;35.88;;;;;;;;;;143740;585;46021;-64
2022/01/09 10:29:08;;;;;;;53.42;33.63;;;;;;;;;;143746;615;46021;-63
2022/01/09 10:31:46;;;;;;;43.90;31.25;;;;;;;;;;143744;582;46022;-64
2022/01/09 10:34:16;;;;;;;39.65;29.20;;;;;;;;;;143741;583;46916;-65
2022/01/09 10:36:51;;;;;;;41.25;27.77;;;;;;;;;;143743;593;46021;-63
2022/01/09 10:39:32;;;;;;;41.37;28.17;;;;;;;;;;143746;581;46020;-64
2022/01/09 10:42:04;;;;;;;48.47;32.08;;;;;;;;;;143743;640;47021;-64
2022/01/09 10:44:37;;;;;;;44.35;31.52;;;;;;;;;;143736;595;47012;-64
2022/01/09 10:47:14;;;;;;;49.38;30.27;;;;;;;;;;143743;586;46020;-63
2022/01/09 10:49:52;;;;;;;47.08;30.45;;;;;;;;;;143742;602;46020;-64
2022/01/09 10:52:29;;;;;;;37.60;26.25;;;;;;;;;;143742;667;47023;-63
2022/01/09 10:54:58;;;;;;;35.05;26.35;;;;;;;;;;143744;589;46012;-64
2022/01/09 10:57:27;;;;;;;40.05;27.20;;;;;;;;;;143742;582;46020;-64
2022/01/09 11:00:04;;;;;;;37.72;28.27;;;;;;;;;;143745;638;46020;-64
2022/01/09 11:02:31;;;;;;;43.25;30.12;;;;;;;;;;143744;631;46022;-63
2022/01/09 11:04:59;;;;;;;40.65;28.40;;;;;;;;;;143742;591;46021;-64
2022/01/09 11:07:27;;;;;;;39.17;29.40;;;;;;;;;;143742;612;46020;-64
2022/01/09 11:09:55;;;;;;;34.40;26.12;;;;;;;;;;143742;593;46020;-65
2022/01/09 11:12:30;;;;;;;37.17;26.65;;;;;;;;;;143744;570;46022;-64
2022/01/09 11:15:03;;;;;;;32.10;26.00;;;;;;;;;;143742;575;46012;-65
2022/01/09 11:17:32;;;;;;;32.47;25.35;;;;;;;;;;143737;611;46020;-65
2022/01/09 11:20:00;;;;;;;33.78;25.20;;;;;;;;;;143744;593;46020;-64
2022/01/09 11:22:29;;;;;;;30.40;22.75;;;;;;;;;;143742;566;46022;-64
2022/01/09 11:25:17;;;;;;;34.67;26.17;;;;;;;;;;143740;563;46915;-63
2022/01/09 11:27:58;;;;;;;41.17;29.92;;;;;;;;;;143741;645;46021;-64
2022/01/09 11:30:53;;;;;;;45.95;29.95;;;;;;;;;;143742;608;46020;-64
2022/01/09 11:34:06;;;;;;;47.17;29.67;;;;;;;;;;143745;680;46021;-64
2022/01/09 11:37:21;;;;;;;41.97;28.42;;;;;;;;;;143742;565;46012;-64
2022/01/09 11:39:49;;;;;;;39.83;27.65;;;;;;;;;;143741;596;46020;-64
2022/01/09 11:42:19;;;;;;;38.50;29.52;;;;;;;;;;143744;602;46020;-64
2022/01/09 11:44:54;;;;;;;34.03;25.27;;;;;;;;;;143742;653;46023;-64
2022/01/09 11:47:22;;;;;;;38.42;27.42;;;;;;;;;;143741;573;46020;-64
2022/01/09 11:50:08;;;;;;;37.67;28.40;;;;;;;;;;143744;614;46021;-64
2022/01/09 11:52:58;;;;;;;39.90;27.55;;;;;;;;;;143743;599;46020;-64
2022/01/09 11:55:41;;;;;;;39.03;28.05;;;;;;;;;;143742;570;47022;-63
2022/01/09 11:58:10;;;;;;;34.72;24.58;;;;;;;;;;143741;579;46020;-64
2022/01/09 12:00:42;;;;;;;34.75;24.10;;;;;;;;;;143741;655;46020;-64
2022/01/09 12:03:46;;;;;;;32.50;25.05;;;;;;;;;;143743;579;46020;-63
2022/01/09 12:06:16;;;;;;;38.35;29.23;;;;;;;;;;143743;570;46023;-64
2022/01/09 12:09:30;;;;;;;46.60;31.08;;;;;;;;;;143742;564;46020;-64
2022/01/09 12:12:16;;;;;;;48.35;28.77;;;;;;;;;;143743;607;46022;-64
2022/01/09 12:14:54;;;;;;;36.95;25.80;;;;;;;;;;143745;564;46020;-64
2022/01/09 12:17:42;;;;;;;30.25;22.73;;;;;;;;;;143744;635;46022;-64
2022/01/09 12:20:43;;;;;;;31.77;24.08;;;;;;;;;;143739;563;46916;-63
2022/01/09 12:23:21;;;;;;;31.75;24.42;;;;;;;;;;143740;591;46020;-65
2022/01/09 12:25:52;;;;;;;31.75;23.80;;;;;;;;;;143744;637;46020;-65
2022/01/09 12:28:35;;;;;;;32.47;24.80;;;;;;;;;;143744;592;46046;-65
2022/01/09 12:31:03;;;;;;;37.10;26.98;;;;;;;;;;143742;627;46020;-65
2022/01/09 12:33:49;;;;;;;35.35;25.27;;;;;;;;;;143741;572;46021;-65
2022/01/09 12:36:23;;;;;;;32.45;24.87;;;;;;;;;;143744;629;46023;-65
2022/01/09 12:38:55;;;;;;;39.55;28.23;;;;;;;;;;143742;582;46022;-65
2022/01/09 12:41:28;;;;;;;44.47;31.40;;;;;;;;;;143742;638;46021;-65
2022/01/09 12:44:00;;;;;;;45.00;30.62;;;;;;;;;;143742;566;46021;-64
2022/01/09 12:46:33;;;;;;;36.30;24.73;;;;;;;;;;143745;575;46020;-64
2022/01/09 12:49:04;;;;;;;40.72;29.73;;;;;;;;;;143744;574;46022;-65
2022/01/09 12:51:34;;;;;;;36.60;27.25;;;;;;;;;;143742;585;46020;-65
2022/01/09 12:54:06;;;;;;;33.72;25.70;;;;;;;;;;143744;608;46020;-65
2022/01/09 12:56:35;;;;;;;34.40;25.05;;;;;;;;;;143745;579;46020;-65
2022/01/09 12:59:09;;;;;;;33.50;24.67;;;;;;;;;;143741;573;47023;-64
2022/01/09 13:01:44;;;;;;;33.45;25.25;;;;;;;;;;143742;606;46020;-64
2022/01/09 13:04:22;;;;;;;37.17;26.37;;;;;;;;;;143742;573;46020;-66
2022/01/09 13:06:52;;;;;;;32.58;22.92;;;;;;;;;;143744;570;46020;-65
2022/01/09 13:09:23;;;;;;;41.28;24.60;;;;;;;;;;143745;697;46022;-65
2022/01/09 13:11:58;;;;;;;32.63;23.12;;;;;;;;;;143742;596;46021;-65
2022/01/09 13:14:25;;;;;;;35.90;25.33;;;;;;;;;;143740;674;46020;-65
2022/01/09 13:16:52;;;;;;;42.20;30.17;;;;;;;;;;143743;563;46020;-65
2022/01/09 13:19:19;;;;;;;44.55;31.35;;;;;;;;;;143741;640;47022;-64
2022/01/09 13:21:49;;;;;;;39.70;28.58;;;;;;;;;;143741;585;46020;-64
2022/01/09 13:24:22;;;;;;;44.90;28.75;;;;;;;;;;143743;657;46020;-65
2022/01/09 13:26:56;;;;;;;42.55;30.23;;;;;;;;;;143745;609;46020;-64
2022/01/09 13:29:32;;;;;;;50.75;34.47;;;;;;;;;;143744;585;46043;-65
2022/01/09 13:32:06;;;;;;;44.40;31.25;;;;;;;;;;143737;640;46915;-65
2022/01/09 13:34:44;;;;;;;47.47;31.67;;;;;;;;;;143742;596;46020;-65
2022/01/09 13:37:16;;;;;;;42.42;31.10;;;;;;;;;;143746;608;46020;-65
2022/01/09 13:39:52;;;;;;;52.83;36.13;;;;;;;;;;143744;608;46022;-65
2022/01/09 13:42:25;;;;;;;50.00;34.45;;;;;;;;;;143741;589;46021;-65
2022/01/09 13:45:13;;;;;;;54.03;37.30;;;;;;;;;;143743;582;46020;-65
2022/01/09 13:47:45;;;;;;;62.70;39.88;;;;;;;;;;143740;601;47020;-65
2022/01/09 13:50:17;;;;;;;57.67;37.45;;;;;;;;;;143742;571;46023;-65
2022/01/09 13:52:44;;;;;;;54.63;37.50;;;;;;;;;;143741;570;46020;-64
2022/01/09 13:55:14;;;;;;;56.67;36.72;;;;;;;;;;143742;571;46020;-65
2022/01/09 13:57:56;;;;;;;54.28;34.53;;;;;;;;;;143745;626;46021;-64
2022/01/09 14:00:26;;;;;;;55.30;37.83;;;;;;;;;;143743;585;46037;-64
2022/01/09 14:02:56;;;;;;;49.35;34.97;;;;;;;;;;143740;642;46021;-64
2022/01/09 14:05:24;;;;;;;44.58;28.52;;;;;;;;;;143741;612;46021;-64
2022/01/09 14:07:53;;;;;;;44.28;31.95;;;;;;;;;;143742;570;46020;-64
2022/01/09 14:10:30;;;;;;;40.38;27.85;;;;;;;;;;143741;576;46022;-64
2022/01/09 14:12:57;;;;;;;37.00;26.95;;;;;;;;;;143740;607;46020;-64
2022/01/09 14:15:28;;;;;;;40.40;27.70;;;;;;;;;;143739;612;46020;-64
2022/01/09 14:17:56;;;;;;;35.92;24.37;;;;;;;;;;143745;592;46020;-64
2022/01/09 14:20:29;;;;;;;33.05;24.63;;;;;;;;;;143742;591;46044;-64
2022/01/09 14:23:08;;;;;;;33.13;23.77;;;;;;;;;;143739;613;46020;-64
2022/01/09 14:25:40;;;;;;;35.70;25.35;;;;;;;;;;143739;569;46020;-64
2022/01/09 14:28:11;;;;;;;28.50;22.45;;;;;;;;;;143742;628;46021;-64
2022/01/09 14:30:43;;;;;;;33.45;24.20;;;;;;;;;;143742;589;46022;-64
2022/01/09 14:33:18;;;;;;;34.40;24.58;;;;;;;;;;143739;645;46020;-64
2022/01/09 14:35:50;;;;;;;30.40;22.65;;;;;;;;;;143740;593;46021;-63
2022/01/09 14:38:20;;;;;;;38.05;23.02;;;;;;;;;;143742;564;46020;-64